Time;durP1;ratioP1;P1;durP2;ratioP2;P2;SDS_P1;SDS_P2;PMS_P1;PMS_P2;Temp;Humidity;BMP_temperature;BMP_pressure;BME280_temperature;BME280_humidity;BME280_pressure;Samples;Min_cycle;Max_cycle;Signal;HPM_P1;HPM_P2
2022/05/01 00:00:20;;;;;;;12.27;6.50;;;;;;;8.61;88.19;96681.31;5076629;28;20226;-70
2022/05/01 00:02:47;;;;;;;15.00;7.50;;;;;;;8.35;88.28;96669.19;5075963;28;20227;-70
2022/05/01 00:05:14;;;;;;;13.53;7.33;;;;;;;8.35;88.45;96673.59;5077408;28;20216;-70
2022/05/01 00:07:40;;;;;;;12.13;6.70;;;;;;;8.43;87.02;96665.78;5077597;28;20204;-70
2022/05/01 00:10:09;;;;;;;16.73;7.90;;;;;;;8.53;86.65;96668.16;5076029;28;20223;-71
2022/05/01 00:12:37;;;;;;;13.33;6.87;;;;;;;8.47;85.68;96669.75;5076287;28;20206;-70
2022/05/01 00:15:05;;;;;;;14.73;7.20;;;;;;;8.14;86.48;96673.91;5077020;28;20579;-70
2022/05/01 00:17:32;;;;;;;13.67;7.00;;;;;;;8.05;86.37;96674.78;5077115;28;20195;-70
2022/05/01 00:19:58;;;;;;;12.07;6.73;;;;;;;8.06;88.15;96668.56;5076419;28;20723;-70
2022/05/01 00:22:25;;;;;;;17.23;8.30;;;;;;;8.16;88.27;96673.75;5076339;28;20684;-70
2022/05/01 00:24:51;;;;;;;12.53;6.20;;;;;;;7.60;84.61;96680.25;5076385;28;20680;-71
2022/05/01 00:27:18;;;;;;;13.77;6.07;;;;;;;7.76;85.72;96677.81;5077167;28;20699;-70
2022/05/01 00:29:45;;;;;;;12.83;6.83;;;;;;;8.03;86.00;96673.28;5076883;28;20251;-70
2022/05/01 00:32:12;;;;;;;13.63;6.37;;;;;;;7.91;84.63;96679.75;5076591;28;20203;-70
2022/05/01 00:37:22;;;;;;;15.73;7.50;;;;;;;7.69;85.08;96674.97;5074724;28;20687;-70
2022/05/01 00:39:49;;;;;;;14.70;7.23;;;;;;;7.77;86.51;96677.66;5076236;28;20701;-70
2022/05/01 00:42:17;;;;;;;14.77;5.90;;;;;;;7.51;86.28;96681.13;5076312;28;20200;-70
2022/05/01 00:44:45;;;;;;;10.67;5.73;;;;;;;7.35;84.57;96680.97;5076402;28;20314;-70
2022/05/01 00:47:12;;;;;;;18.07;6.67;;;;;;;7.43;83.52;96681.91;5077180;28;20199;-70
2022/05/01 00:49:39;;;;;;;11.77;6.83;;;;;;;7.45;84.85;96677.31;5076311;28;20748;-70
2022/05/01 00:52:08;;;;;;;12.57;6.43;;;;;;;7.57;86.82;96676.13;5076633;28;20204;-70
2022/05/01 00:54:37;;;;;;;14.30;7.10;;;;;;;7.58;87.98;96680.41;5075980;28;20226;-70
2022/05/01 00:57:06;;;;;;;15.13;7.43;;;;;;;7.62;89.22;96679.13;5076354;28;21114;-70
2022/05/01 00:59:34;;;;;;;14.50;7.43;;;;;;;7.69;87.20;96685.44;5076333;28;20225;-70
2022/05/01 01:02:03;;;;;;;12.83;7.03;;;;;;;7.79;86.60;96680.97;5076727;28;20421;-70
2022/05/01 01:04:29;;;;;;;14.07;6.60;;;;;;;7.42;84.30;96682.88;5075817;28;20216;-70
2022/05/01 01:06:56;;;;;;;12.53;6.73;;;;;;;7.37;83.96;96677.22;5076841;28;20693;-70
2022/05/01 01:09:22;;;;;;;19.10;7.03;;;;;;;7.42;83.77;96682.88;5076160;28;20971;-70
2022/05/01 01:12:53;;;;;;;13.83;6.93;;;;;;;7.22;85.54;96679.66;5079639;28;21258;-70
2022/05/01 01:14:35;;;;;;;15.30;7.33;;;;;;;7.26;86.25;96682.66;5079841;28;20265;-70
2022/05/01 01:17:04;;;;;;;14.40;6.57;;;;;;;7.40;83.65;96676.94;5080671;28;20203;-70
2022/05/01 01:19:30;;;;;;;10.27;5.73;;;;;;;6.64;85.75;96680.06;5079316;28;20277;-70
2022/05/01 01:21:58;;;;;;;12.67;6.87;;;;;;;7.15;86.11;96673.34;5079863;28;20688;-70
2022/05/01 01:24:25;;;;;;;12.13;6.47;;;;;;;6.94;86.53;96678.84;5079838;28;20231;-70
2022/05/01 01:26:52;;;;;;;14.73;7.23;;;;;;;7.03;86.55;96674.53;5079657;28;20203;-70
2022/05/01 01:32:05;;;;;;;13.87;7.17;;;;;;;7.03;82.60;96674.53;5079920;28;20211;-70
2022/05/01 01:34:36;;;;;;;17.97;7.33;;;;;;;7.26;83.51;96671.38;5079104;28;20203;-69
2022/05/01 01:37:06;;;;;;;12.67;6.80;;;;;;;7.20;83.71;96677.19;5077640;28;20295;-70
2022/05/01 01:39:34;;;;;;;15.83;7.60;;;;;;;6.99;84.95;96676.59;5079914;28;20224;-70
2022/05/01 01:42:05;;;;;;;15.87;8.33;;;;;;;7.09;85.96;96673.94;5079377;28;20208;-70
2022/05/01 01:44:32;;;;;;;19.83;7.30;;;;;;;6.93;85.77;96669.31;5078910;28;20227;-70
2022/05/01 01:46:58;;;;;;;15.40;7.80;;;;;;;6.87;86.26;96672.53;5079266;28;20204;-70
2022/05/01 01:49:25;;;;;;;16.37;7.67;;;;;;;6.84;85.99;96666.75;5079692;28;20281;-70
2022/05/01 01:51:52;;;;;;;14.47;7.07;;;;;;;6.89;84.49;96672.38;5078992;28;20200;-70
2022/05/01 01:54:19;;;;;;;17.77;8.17;;;;;;;6.92;84.79;96667.66;5078909;28;20207;-70
2022/05/01 01:56:46;;;;;;;18.13;8.50;;;;;;;6.70;85.90;96664.59;5079245;28;20207;-70
2022/05/01 01:59:13;;;;;;;20.27;8.40;;;;;;;6.45;87.80;96657.34;5079203;28;20223;-70
2022/05/01 02:01:42;;;;;;;17.20;8.20;;;;;;;6.57;88.50;96652.78;5079097;28;20199;-70
2022/05/01 02:04:10;;;;;;;18.23;8.90;;;;;;;6.65;87.73;96658.13;5078470;28;20316;-69
2022/05/01 02:06:37;;;;;;;20.50;8.30;;;;;;;6.68;86.14;96656.88;5079177;28;20192;-69
2022/05/01 02:09:06;;;;;;;20.30;8.63;;;;;;;6.77;86.28;96655.19;5078523;28;20215;-70
2022/05/01 02:11:35;;;;;;;19.20;8.33;;;;;;;6.98;86.21;96653.19;5079126;28;20196;-70
2022/05/01 02:14:01;;;;;;;17.83;8.50;;;;;;;6.79;85.37;96650.63;5078336;28;20200;-69
2022/05/01 02:16:29;;;;;;;17.87;8.20;;;;;;;6.73;84.85;96648.59;5079419;28;20204;-70
2022/05/01 02:18:55;;;;;;;20.70;8.27;;;;;;;6.73;86.29;96646.81;5078915;28;20204;-70
2022/05/01 02:21:37;;;;;;;17.63;7.93;;;;;;;6.71;86.53;96648.72;5078795;28;20200;-69
2022/05/01 02:24:08;;;;;;;16.80;7.27;;;;;;;6.95;84.96;96649.06;5077540;28;20304;-70
2022/05/01 02:26:38;;;;;;;18.30;7.70;;;;;;;7.04;84.52;96647.34;5078990;28;20219;-69
2022/05/01 02:29:09;;;;;;;15.10;7.90;;;;;;;6.81;84.87;96644.28;5078238;28;20227;-69
2022/05/01 02:31:40;;;;;;;15.87;7.30;;;;;;;6.86;85.81;96649.06;5079665;28;20269;-70
2022/05/01 02:34:08;;;;;;;16.17;7.77;;;;;;;6.67;87.28;96643.94;5075115;28;20202;-70
2022/05/01 02:36:34;;;;;;;18.23;8.43;;;;;;;6.60;88.05;96640.22;5077644;28;20211;-69
2022/05/01 02:39:01;;;;;;;22.40;9.63;;;;;;;6.88;88.16;96640.09;5076985;28;20220;-70
2022/05/01 02:41:28;;;;;;;20.90;7.93;;;;;;;6.37;86.19;96641.53;5079124;28;20203;-70
2022/05/01 02:43:56;;;;;;;13.93;6.33;;;;;;;6.50;85.45;96639.44;5077780;28;20235;-70
2022/05/01 02:46:24;;;;;;;18.47;8.00;;;;;;;6.52;85.72;96634.88;5078150;28;20210;-70
2022/05/01 02:48:50;;;;;;;17.07;7.87;;;;;;;6.58;87.16;96638.72;5078377;28;20204;-70
2022/05/01 02:51:17;;;;;;;18.27;7.90;;;;;;;6.33;87.45;96634.94;5078415;28;20412;-70
2022/05/01 02:53:43;;;;;;;18.67;8.47;;;;;;;6.57;88.22;96630.06;5077850;28;20200;-69
2022/05/01 02:56:10;;;;;;;19.13;8.03;;;;;;;6.57;86.76;96632.66;5078148;28;20200;-69
2022/05/01 02:58:36;;;;;;;18.10;7.80;;;;;;;6.58;83.45;96634.31;5078107;28;20239;-70
2022/05/01 03:01:04;;;;;;;14.70;7.40;;;;;;;6.79;85.00;96630.50;5077815;28;20219;-70
2022/05/01 03:03:31;;;;;;;17.50;8.13;;;;;;;6.37;87.27;96628.44;5077532;28;20200;-69
2022/05/01 03:05:58;;;;;;;22.60;8.93;;;;;;;6.37;88.66;96620.59;5077519;28;20211;-69
2022/05/01 03:08:25;;;;;;;17.60;8.27;;;;;;;6.25;87.77;96621.75;5077781;28;20231;-70
2022/05/01 03:10:52;;;;;;;20.00;8.63;;;;;;;6.13;85.79;96615.00;5077476;28;20590;-70
2022/05/01 03:13:18;;;;;;;16.23;7.37;;;;;;;6.24;86.90;96621.88;5077389;28;20196;-70
2022/05/01 03:15:45;;;;;;;16.53;8.20;;;;;;;6.32;88.92;96614.97;5077147;28;20665;-69
2022/05/01 03:23:42;;;;;;;15.47;7.27;;;;;;;6.04;86.18;96609.00;5076951;28;21027;-69
2022/05/01 03:26:08;;;;;;;14.80;7.10;;;;;;;5.76;85.72;96615.88;5077393;28;20214;-70
2022/05/01 03:28:34;;;;;;;14.83;6.93;;;;;;;5.96;85.89;96614.06;5078195;28;20655;-70
2022/05/01 03:31:03;;;;;;;18.37;7.60;;;;;;;6.03;87.44;96608.16;5076984;28;20230;-70
2022/05/01 03:33:32;;;;;;;20.60;8.63;;;;;;;6.32;88.21;96620.19;5076456;28;20215;-69
2022/05/01 03:35:58;;;;;;;18.83;8.23;;;;;;;6.07;89.20;96612.97;5077677;28;20649;-69
2022/05/01 03:38:25;;;;;;;19.83;8.57;;;;;;;6.21;88.85;96612.53;5074737;28;20291;-70
2022/05/01 03:40:52;;;;;;;16.10;6.87;;;;;;;5.89;87.83;96616.41;5076584;28;20227;-70
2022/05/01 03:43:19;;;;;;;16.07;7.20;;;;;;;5.83;85.75;96608.31;5077804;28;20206;-69
2022/05/01 03:45:46;;;;;;;16.90;7.23;;;;;;;5.98;86.36;96615.59;5077114;28;20219;-70
2022/05/01 03:48:12;;;;;;;13.20;7.10;;;;;;;5.95;84.62;96621.09;5077054;28;20243;-70
2022/05/01 03:50:41;;;;;;;18.20;7.87;;;;;;;6.12;85.79;96621.22;5077663;28;20300;-69
2022/05/01 03:53:10;;;;;;;16.17;6.73;;;;;;;5.96;87.01;96624.53;5076351;28;20200;-70
2022/05/01 03:55:36;;;;;;;12.80;6.30;;;;;;;5.34;85.75;96631.94;5077425;28;20200;-69
2022/05/01 03:58:04;;;;;;;14.73;6.73;;;;;;;5.43;86.08;96623.28;5077131;28;20197;-69
2022/05/01 04:00:31;;;;;;;13.43;6.73;;;;;;;5.63;84.56;96625.78;5077093;28;20342;-69
2022/05/01 04:02:58;;;;;;;17.60;7.10;;;;;;;5.75;85.07;96629.06;5076557;28;20207;-70
2022/05/01 04:05:24;;;;;;;16.87;7.43;;;;;;;5.86;87.38;96632.41;5077243;28;20220;-70
2022/05/01 04:07:52;;;;;;;16.83;7.50;;;;;;;5.75;87.25;96629.91;5076763;28;20195;-69
2022/05/01 04:10:19;;;;;;;15.73;6.90;;;;;;;5.66;84.62;96637.75;5077129;28;20663;-69
2022/05/01 04:12:46;;;;;;;16.70;7.07;;;;;;;5.79;86.44;96630.47;5076212;28;20543;-69
2022/05/01 04:15:14;;;;;;;14.47;7.00;;;;;;;5.82;86.89;96627.59;5077583;28;20196;-69
2022/05/01 04:17:42;;;;;;;13.67;6.30;;;;;;;5.89;84.11;96626.88;5076721;28;20928;-69
2022/05/01 04:20:11;;;;;;;13.77;6.17;;;;;;;5.96;83.33;96632.38;5076244;28;20215;-69
2022/05/01 04:22:39;;;;;;;13.87;6.70;;;;;;;5.90;82.62;96627.72;5076044;28;20207;-69
2022/05/01 04:25:16;;;;;;;15.20;6.77;;;;;;;6.04;83.58;96624.69;5077361;28;20239;-69
2022/05/01 04:27:43;;;;;;;19.97;7.40;;;;;;;5.61;86.14;96632.94;5076663;28;20200;-69
2022/05/01 04:30:11;;;;;;;16.47;7.07;;;;;;;5.77;87.83;96617.53;5076313;28;20251;-69
2022/05/01 04:32:50;;;;;;;17.30;7.27;;;;;;;6.05;87.93;96622.75;5075760;28;20758;-70
2022/05/01 04:35:25;;;;;;;18.13;7.33;;;;;;;6.04;86.46;96634.16;5076784;28;20671;-69
2022/05/01 04:37:52;;;;;;;15.67;6.93;;;;;;;5.68;84.86;96633.22;5073658;28;20294;-70
2022/05/01 04:40:20;;;;;;;13.60;6.73;;;;;;;5.89;84.10;96639.16;5076707;28;20229;-69
2022/05/01 04:42:47;;;;;;;18.70;7.47;;;;;;;5.93;85.16;96636.13;5076057;28;20200;-69
2022/05/01 04:45:14;;;;;;;13.17;6.57;;;;;;;5.91;86.96;96640.66;5079031;28;20219;-69
2022/05/01 04:47:40;;;;;;;15.10;6.70;;;;;;;5.86;88.72;96647.28;5081160;28;20228;-69
2022/05/01 04:50:09;;;;;;;13.60;6.57;;;;;;;6.11;88.77;96645.72;5080692;28;20735;-69
2022/05/01 04:52:38;;;;;;;14.37;7.07;;;;;;;6.19;89.07;96651.06;5079144;28;21148;-69
2022/05/01 04:55:05;;;;;;;16.13;6.73;;;;;;;6.02;89.08;96652.75;5081065;28;20191;-69
2022/05/01 04:57:33;;;;;;;16.47;7.47;;;;;;;6.12;89.11;96652.63;5080331;28;20290;-69
2022/05/01 05:00:00;;;;;;;16.00;7.57;;;;;;;6.11;89.25;96653.56;5080148;28;20230;-70
2022/05/01 05:02:34;;;;;;;13.03;6.07;;;;;;;6.46;90.03;96653.78;5079836;28;20207;-69
2022/05/01 05:05:01;;;;;;;13.13;6.17;;;;;;;6.26;89.94;96652.19;5080820;28;20250;-70
2022/05/01 05:07:27;;;;;;;14.93;6.70;;;;;;;6.46;89.90;96658.19;5080514;28;20200;-69
2022/05/01 05:09:53;;;;;;;17.63;6.33;;;;;;;6.51;90.37;96661.22;5080129;28;20243;-68
2022/05/01 05:12:19;;;;;;;14.20;6.10;;;;;;;6.49;90.97;96658.75;5079839;28;21136;-68
2022/05/01 05:14:49;;;;;;;15.13;6.37;;;;;;;6.83;91.92;96654.63;5080397;28;20196;-69
2022/05/01 05:17:18;;;;;;;12.50;6.20;;;;;;;6.72;91.65;96660.88;5080566;28;20200;-69
2022/05/01 05:19:45;;;;;;;14.13;7.03;;;;;;;6.88;90.96;96658.44;5080006;28;20270;-69
2022/05/01 05:22:11;;;;;;;14.37;6.87;;;;;;;7.00;91.58;96664.31;5079686;28;20200;-69
2022/05/01 05:24:38;;;;;;;13.47;7.17;;;;;;;7.13;92.37;96656.94;5079345;28;20220;-68
2022/05/01 05:27:05;;;;;;;14.63;6.70;;;;;;;7.42;92.04;96663.66;5080452;28;20195;-69
2022/05/01 05:29:32;;;;;;;18.10;7.77;;;;;;;7.56;91.98;96665.78;5079401;28;20785;-68
2022/05/01 05:32:00;;;;;;;20.83;8.53;;;;;;;7.85;91.73;96659.34;5079951;28;20195;-69
2022/05/01 05:34:26;;;;;;;20.97;9.27;;;;;;;7.74;91.98;96659.59;5079041;28;20199;-69
2022/05/01 05:36:53;;;;;;;23.87;9.67;;;;;;;7.95;92.66;96654.84;5076603;28;20219;-68
2022/05/01 05:39:20;;;;;;;72.93;23.90;;;;;;;8.09;91.49;96656.94;5079216;28;20232;-68
2022/05/01 05:41:46;;;;;;;33.10;13.33;;;;;;;8.08;91.38;96655.28;5079849;28;20203;-68
2022/05/01 05:44:13;;;;;;;34.57;12.83;;;;;;;7.93;91.82;96659.44;5079094;28;20997;-69
2022/05/01 05:46:39;;;;;;;41.27;14.70;;;;;;;8.04;92.16;96659.19;5079723;28;20203;-68
2022/05/01 05:49:07;;;;;;;44.97;16.77;;;;;;;8.44;91.95;96664.78;5078893;28;20220;-69
2022/05/01 05:51:34;;;;;;;101.43;33.57;;;;;;;8.39;91.50;96660.00;5079782;28;20215;-68
2022/05/01 05:54:00;;;;;;;85.97;28.30;;;;;;;8.30;92.63;96666.19;5078302;28;20572;-69
2022/05/01 05:56:27;;;;;;;55.27;20.23;;;;;;;8.41;92.79;96675.63;5078556;28;20200;-69
2022/05/01 05:58:53;;;;;;;40.67;16.97;;;;;;;8.30;92.29;96681.94;5079190;28;20582;-68
2022/05/01 06:01:20;;;;;;;30.93;14.57;;;;;;;8.27;92.28;96678.78;5079446;28;20588;-68
2022/05/01 06:03:46;;;;;;;23.03;10.63;;;;;;;8.64;92.15;96678.41;5078446;28;20473;-69
2022/05/01 06:06:15;;;;;;;28.50;12.67;;;;;;;8.81;91.66;96685.41;5079175;28;20961;-68
2022/05/01 06:08:43;;;;;;;31.23;14.13;;;;;;;9.05;90.72;96675.03;5079541;28;20253;-69
2022/05/01 06:11:09;;;;;;;30.93;13.30;;;;;;;8.96;90.63;96681.22;5079129;28;20235;-69
2022/05/01 06:13:36;;;;;;;37.73;15.00;;;;;;;9.21;89.44;96675.09;5078555;28;20192;-69
2022/05/01 06:16:02;;;;;;;31.57;13.30;;;;;;;9.51;89.69;96674.53;5079229;28;20203;-69
2022/05/01 06:18:29;;;;;;;42.93;16.83;;;;;;;9.68;88.07;96679.69;5079216;28;20202;-69
2022/05/01 06:20:55;;;;;;;34.17;14.33;;;;;;;9.81;87.92;96675.63;5078074;28;20231;-69
2022/05/01 06:23:23;;;;;;;34.60;12.90;;;;;;;9.92;87.22;96672.66;5079756;28;20536;-69
2022/05/01 06:25:50;;;;;;;33.70;13.87;;;;;;;9.89;87.53;96680.91;5079602;28;20220;-69
2022/05/01 06:28:17;;;;;;;29.23;12.23;;;;;;;9.92;88.93;96680.56;5078908;28;20206;-69
2022/05/01 06:30:45;;;;;;;28.30;12.20;;;;;;;10.02;88.63;96686.53;5078297;28;20251;-69
2022/05/01 06:33:15;;;;;;;35.93;19.77;;;;;;;10.36;87.00;96681.94;5078922;28;20204;-69
2022/05/01 06:35:43;;;;;;;27.20;12.63;;;;;;;9.84;87.31;96685.00;5078714;28;20196;-69
2022/05/01 06:38:10;;;;;;;31.07;13.00;;;;;;;10.05;87.68;96688.03;5075150;28;20203;-69
2022/05/01 06:40:38;;;;;;;28.47;13.00;;;;;;;10.45;85.94;96680.94;5078249;28;20215;-68
2022/05/01 06:43:05;;;;;;;32.03;12.57;;;;;;;10.21;86.92;96682.75;5078033;28;20200;-68
2022/05/01 06:45:32;;;;;;;31.43;13.20;;;;;;;10.32;85.75;96687.72;5078170;28;20220;-69
2022/05/01 06:47:58;;;;;;;29.23;12.60;;;;;;;10.53;85.77;96678.31;5078443;28;20222;-69
2022/05/01 06:50:25;;;;;;;30.57;12.93;;;;;;;10.41;86.97;96675.19;5077402;28;20227;-69
2022/05/01 06:52:51;;;;;;;33.03;13.77;;;;;;;10.31;88.21;96684.25;5077989;28;20221;-69
2022/05/01 06:55:18;;;;;;;27.23;13.07;;;;;;;10.82;85.53;96681.22;5078188;28;20388;-69
2022/05/01 06:57:46;;;;;;;30.20;13.27;;;;;;;11.00;86.37;96677.41;5078267;28;20247;-69
2022/05/01 07:00:14;;;;;;;41.03;16.13;;;;;;;11.03;84.85;96677.88;5078135;28;20224;-69
2022/05/01 07:02:46;;;;;;;33.33;13.90;;;;;;;11.35;85.32;96683.06;5076904;28;20207;-70
2022/05/01 07:05:12;;;;;;;40.70;16.67;;;;;;;11.34;84.63;96685.88;5078280;28;20224;-69
2022/05/01 07:07:39;;;;;;;28.43;13.50;;;;;;;11.41;84.10;96684.22;5077045;28;20196;-69
2022/05/01 07:10:07;;;;;;;32.80;13.97;;;;;;;11.74;83.00;96683.91;5077628;28;20309;-69
2022/05/01 07:12:33;;;;;;;33.80;14.73;;;;;;;11.54;82.95;96687.97;5077117;28;20556;-70
2022/05/01 07:15:01;;;;;;;29.50;14.20;;;;;;;11.74;84.75;96681.28;5077898;28;20196;-69
2022/05/01 07:17:28;;;;;;;28.63;12.87;;;;;;;11.81;84.87;96674.28;5077184;28;20201;-69
2022/05/01 07:19:54;;;;;;;33.57;14.73;;;;;;;12.06;81.62;96673.16;5077824;28;20227;-70
2022/05/01 07:22:21;;;;;;;29.60;12.73;;;;;;;11.71;84.25;96669.25;5076960;28;20211;-69
2022/05/01 07:24:47;;;;;;;25.23;11.60;;;;;;;11.74;82.66;96679.44;5077482;28;20200;-69
2022/05/01 07:27:14;;;;;;;27.17;11.23;;;;;;;11.64;81.60;96672.75;5077737;28;20204;-69
2022/05/01 07:29:40;;;;;;;26.23;11.47;;;;;;;11.68;79.20;96676.69;5077658;28;20224;-69
2022/05/01 07:32:09;;;;;;;24.67;10.37;;;;;;;11.71;81.33;96673.69;5076817;28;20199;-69
2022/05/01 07:34:35;;;;;;;23.77;10.77;;;;;;;11.62;81.05;96672.06;5077709;28;20200;-70
2022/05/01 07:37:02;;;;;;;21.77;10.07;;;;;;;11.76;77.99;96666.91;5074927;28;20203;-69
2022/05/01 07:39:28;;;;;;;18.07;8.87;;;;;;;11.47;78.53;96667.66;5077270;28;20234;-69
2022/05/01 07:41:55;;;;;;;20.33;8.87;;;;;;;11.56;77.67;96670.16;5077457;28;20207;-69
2022/05/01 07:44:21;;;;;;;19.43;8.50;;;;;;;11.89;75.24;96664.50;5076840;28;20199;-69
2022/05/01 07:46:48;;;;;;;21.47;9.00;;;;;;;12.00;75.01;96671.22;5077762;28;20278;-70
2022/05/01 07:49:16;;;;;;;17.03;8.00;;;;;;;12.38;75.95;96658.69;5077193;28;20234;-70
2022/05/01 07:51:42;;;;;;;18.70;8.83;;;;;;;12.09;76.01;96667.50;5077404;28;20200;-69
2022/05/01 07:54:08;;;;;;;20.03;8.40;;;;;;;11.93;76.17;96670.28;5076225;28;20208;-69
2022/05/01 07:56:35;;;;;;;19.97;9.03;;;;;;;12.49;76.78;96660.91;5077582;28;20628;-69
2022/05/01 07:59:02;;;;;;;19.73;8.67;;;;;;;12.17;74.90;96655.88;5076607;28;20224;-69
2022/05/01 08:01:28;;;;;;;21.07;9.17;;;;;;;12.50;74.15;96657.28;5077043;28;20893;-69
2022/05/01 08:06:40;;;;;;;21.17;9.83;;;;;;;12.89;74.73;96652.63;5076770;28;20265;-70
2022/05/01 08:09:07;;;;;;;17.50;8.83;;;;;;;12.79;75.82;96647.59;5076897;28;20231;-70
2022/05/01 08:11:33;;;;;;;18.60;8.67;;;;;;;12.68;74.73;96655.13;5077480;28;20664;-70
2022/05/01 08:14:00;;;;;;;19.50;9.17;;;;;;;13.15;73.67;96653.00;5076064;28;20208;-69
2022/05/01 08:16:26;;;;;;;14.47;7.27;;;;;;;12.80;71.71;96659.81;5077058;28;20244;-70
2022/05/01 08:21:36;;;;;;;18.30;8.57;;;;;;;12.98;71.20;96662.13;5081645;28;20219;-70
2022/05/01 08:24:05;;;;;;;19.00;8.77;;;;;;;13.08;73.54;96652.09;5079573;28;20210;-70
2022/05/01 08:26:33;;;;;;;17.80;8.47;;;;;;;13.34;71.31;96658.59;5080079;28;20226;-70
2022/05/01 08:29:00;;;;;;;19.73;8.87;;;;;;;13.31;72.66;96648.34;5080633;28;20245;-69
2022/05/01 08:31:27;;;;;;;19.00;8.63;;;;;;;13.10;71.26;96650.91;5081365;28;20647;-70
2022/05/01 08:33:54;;;;;;;17.33;8.60;;;;;;;13.36;71.18;96650.47;5079905;28;20207;-69
2022/05/01 08:36:21;;;;;;;16.30;8.20;;;;;;;13.40;70.29;96642.78;5078968;28;20265;-69
2022/05/01 08:38:47;;;;;;;18.10;8.37;;;;;;;13.27;69.93;96651.56;5081172;28;20800;-70
2022/05/01 08:41:15;;;;;;;14.13;7.17;;;;;;;13.08;70.78;96642.31;5081223;28;20561;-70
2022/05/01 08:43:42;;;;;;;13.57;7.27;;;;;;;12.84;71.13;96647.03;5079759;28;20203;-69
2022/05/01 08:46:20;;;;;;;17.17;8.10;;;;;;;13.19;71.38;96649.81;5080363;28;20230;-69
2022/05/01 08:48:54;;;;;;;16.07;7.50;;;;;;;13.61;68.75;96649.97;5081048;28;20218;-69
2022/05/01 08:51:22;;;;;;;18.27;8.33;;;;;;;13.86;68.19;96644.16;5081123;28;20210;-69
2022/05/01 08:53:49;;;;;;;18.10;7.07;;;;;;;13.93;67.61;96649.53;5079513;28;20616;-70
2022/05/01 08:56:19;;;;;;;15.75;7.43;;;;;;;14.15;66.60;96644.06;5080836;28;20237;-69
2022/05/01 08:58:47;;;;;;;18.40;7.93;;;;;;;13.70;69.47;96644.38;5081145;28;20643;-70
2022/05/01 09:01:14;;;;;;;15.07;7.60;;;;;;;13.74;71.55;96639.53;5080198;28;20204;-70
2022/05/01 09:03:44;;;;;;;16.52;7.43;;;;;;;14.31;68.25;96638.53;5079527;28;20200;-69
2022/05/01 09:06:11;;;;;;;14.65;7.57;;;;;;;14.29;64.83;96645.84;5080551;28;20216;-70
2022/05/01 09:08:38;;;;;;;16.38;8.20;;;;;;;14.21;65.53;96643.31;5080330;28;20200;-70
2022/05/01 09:13:46;;;;;;;17.42;8.05;;;;;;;14.75;67.43;96638.09;5079572;28;20204;-70
2022/05/01 09:16:13;;;;;;;16.00;8.18;;;;;;;14.93;70.08;96641.09;5080181;28;20316;-70
2022/05/01 09:18:43;;;;;;;18.35;7.93;;;;;;;14.93;65.07;96638.44;5080149;28;20208;-70
2022/05/01 09:21:10;;;;;;;14.40;7.40;;;;;;;14.12;64.86;96634.66;5080213;28;20291;-70
2022/05/01 09:23:37;;;;;;;17.45;7.97;;;;;;;14.56;64.39;96634.47;5079668;28;20203;-70
2022/05/01 09:26:04;;;;;;;17.83;8.48;;;;;;;14.23;67.85;96631.53;5079824;28;20234;-70
2022/05/01 09:28:31;;;;;;;16.15;7.75;;;;;;;13.95;67.31;96632.44;5080148;28;20203;-70
2022/05/01 09:30:59;;;;;;;15.95;7.70;;;;;;;14.66;67.06;96633.94;5078457;28;20219;-70
2022/05/01 09:33:25;;;;;;;25.05;7.82;;;;;;;15.02;67.97;96633.78;5079274;28;20206;-69
2022/05/01 09:35:52;;;;;;;18.45;8.82;;;;;;;15.23;64.87;96631.91;5079931;28;20323;-70
2022/05/01 09:38:21;;;;;;;18.73;9.15;;;;;;;15.17;67.04;96632.66;5078088;28;20221;-70
2022/05/01 09:40:49;;;;;;;20.15;9.15;;;;;;;15.34;69.34;96629.53;5079426;28;20229;-70
2022/05/01 09:43:37;;;;;;;20.42;9.90;;;;;;;15.75;66.96;96621.53;5079082;28;20200;-70
2022/05/01 09:46:17;;;;;;;22.52;10.15;;;;;;;15.94;68.05;96617.06;5078808;28;20298;-70
2022/05/01 09:48:56;;;;;;;20.10;9.27;;;;;;;14.72;69.90;96622.53;5079906;28;20222;-69
2022/05/01 09:51:22;;;;;;;19.80;9.27;;;;;;;14.16;73.12;96629.81;5079264;28;20200;-69
2022/05/01 09:53:49;;;;;;;20.58;9.70;;;;;;;15.28;71.82;96632.13;5079329;28;20204;-70
2022/05/01 09:56:15;;;;;;;19.80;9.52;;;;;;;15.58;67.31;96628.19;5079666;28;20208;-71
2022/05/01 09:58:43;;;;;;;19.52;9.00;;;;;;;15.31;70.13;96629.91;5079805;28;20582;-69
2022/05/01 10:01:11;;;;;;;18.95;8.88;;;;;;;15.68;68.71;96626.81;5079111;28;20314;-70
2022/05/01 10:03:43;;;;;;;19.02;9.10;;;;;;;15.98;65.33;96626.28;5078412;28;20207;-70
2022/05/01 10:06:11;;;;;;;18.85;9.10;;;;;;;15.72;64.22;96624.56;5080049;28;20330;-70
2022/05/01 10:08:38;;;;;;;18.63;8.68;;;;;;;15.13;66.48;96631.41;5080134;28;20231;-69
2022/05/01 10:11:05;;;;;;;23.20;9.38;;;;;;;15.09;64.05;96624.84;5079513;28;20306;-69
2022/05/01 10:13:33;;;;;;;18.67;9.50;;;;;;;15.53;66.13;96612.84;5078250;28;20314;-70
2022/05/01 10:16:03;;;;;;;18.20;8.18;;;;;;;15.60;66.90;96618.19;5079264;28;20215;-70
2022/05/01 10:18:30;;;;;;;14.65;7.65;;;;;;;15.51;62.95;96624.69;5078850;28;20231;-70
2022/05/01 10:20:58;;;;;;;16.50;7.85;;;;;;;15.82;60.67;96614.38;5078899;28;20219;-70
2022/05/01 10:23:25;;;;;;;20.20;8.40;;;;;;;15.05;63.95;96612.19;5078514;28;20208;-70
2022/05/01 10:25:56;;;;;;;16.85;8.15;;;;;;;15.59;61.48;96613.91;5079105;28;20250;-70
2022/05/01 10:29:02;;;;;;;17.48;8.13;;;;;;;16.14;60.44;96611.81;5078868;28;20290;-70
2022/05/01 10:35:04;;;;;;;20.05;8.65;;;;;;;16.40;59.96;96596.72;5078321;28;20908;-69
2022/05/01 10:37:56;;;;;;;19.92;8.57;;;;;;;15.94;61.62;96601.13;5074488;28;20196;-68
2022/05/01 10:40:23;;;;;;;15.52;7.95;;;;;;;16.58;59.24;96592.44;5077031;28;20703;-68
2022/05/01 10:42:49;;;;;;;17.20;8.05;;;;;;;16.34;59.83;96592.22;5077584;28;20941;-68
2022/05/01 10:45:41;;;;;;;19.23;8.55;;;;;;;16.67;65.33;96587.72;5078219;28;20281;-68
2022/05/01 10:48:11;;;;;;;18.67;8.77;;;;;;;16.18;61.00;96592.59;5077612;28;21016;-68
2022/05/01 10:50:39;;;;;;;14.70;7.60;;;;;;;15.84;61.86;96599.88;5077983;28;20300;-69
2022/05/01 10:53:11;;;;;;;16.33;8.45;;;;;;;16.54;64.55;96591.19;5077654;28;20672;-69
2022/05/01 10:55:52;;;;;;;14.48;8.05;;;;;;;17.16;60.15;96597.69;5078079;28;20207;-68
2022/05/01 10:58:20;;;;;;;14.75;7.35;;;;;;;17.19;58.07;96589.25;5078122;28;20227;-69
2022/05/01 11:00:47;;;;;;;16.77;8.05;;;;;;;17.22;58.00;96588.88;5078342;28;20300;-68
2022/05/01 11:03:25;;;;;;;15.60;7.43;;;;;;;17.74;58.82;96583.34;5077451;28;20211;-69
2022/05/01 11:05:55;;;;;;;14.05;7.63;;;;;;;18.06;57.89;96574.34;5077644;28;20319;-69
2022/05/01 11:08:25;;;;;;;17.38;8.00;;;;;;;18.44;54.01;96579.47;5077839;28;20664;-68
2022/05/01 11:10:53;;;;;;;14.00;7.53;;;;;;;17.88;55.34;96568.94;5077594;28;20215;-69
2022/05/01 11:13:20;;;;;;;17.70;8.30;;;;;;;18.22;53.72;96576.56;5077244;28;20231;-68
2022/05/01 11:15:49;;;;;;;12.95;7.30;;;;;;;18.71;52.21;96566.72;5078049;28;20621;-68
2022/05/01 11:18:15;;;;;;;16.00;7.28;;;;;;;18.65;55.36;96564.94;5077857;28;20204;-69
2022/05/01 11:20:43;;;;;;;15.80;7.80;;;;;;;17.91;54.04;96566.66;5078158;28;20227;-68
2022/05/01 11:23:34;;;;;;;14.30;7.75;;;;;;;17.10;57.10;96569.22;5077511;28;20200;-68
2022/05/01 11:26:09;;;;;;;13.73;7.78;;;;;;;17.63;53.51;96569.88;5076319;28;20203;-68
2022/05/01 11:28:43;;;;;;;13.02;6.93;;;;;;;17.89;53.63;96563.38;5077321;28;20207;-68
2022/05/01 11:31:47;;;;;;;14.75;8.07;;;;;;;17.88;53.10;96564.44;5076063;28;20565;-68
2022/05/01 11:34:33;;;;;;;14.80;8.13;;;;;;;17.92;55.86;96564.81;5074592;28;20199;-68
2022/05/01 11:37:01;;;;;;;16.88;8.27;;;;;;;18.18;61.35;96562.81;5074958;28;20210;-68
2022/05/01 11:40:01;;;;;;;15.98;7.35;;;;;;;18.33;58.13;96558.00;5076591;28;20220;-69
2022/05/01 11:42:36;;;;;;;15.40;8.13;;;;;;;18.25;53.37;96560.09;5076015;28;20208;-68
2022/05/01 11:45:04;;;;;;;15.52;7.75;;;;;;;18.32;55.50;96555.53;5076927;28;20203;-68
2022/05/01 11:47:33;;;;;;;16.05;7.85;;;;;;;17.87;56.83;96559.28;5076757;28;20226;-68
2022/05/01 11:49:59;;;;;;;15.95;7.32;;;;;;;18.13;53.23;96551.94;5076318;28;20350;-68
2022/05/01 11:52:26;;;;;;;11.82;6.65;;;;;;;18.35;53.81;96555.91;5076055;28;20208;-68
2022/05/01 11:54:54;;;;;;;17.15;8.07;;;;;;;18.04;57.68;96549.78;5076281;28;20196;-68
2022/05/01 12:02:57;;;;;;;18.40;8.60;;;;;;;17.29;61.81;96555.06;5075996;28;20288;-68